Hamburg Express — DFKM2 — position and weather

sailwx.info

Track history (hours):
 
Tides and Currents Weather Stations Pressure Air Temp Water Temp Dewpoint Dewpoint Depression Visibility Wind Speed Wind Dir Waves Ship Positions

Hamburg Express

Last reported at 2016-May-31 00:26 UTC. Time now 2016-May-31 04:03 UTC.
Position N 34°22' E 022°19'.

Length 366 m; draft 15 m.

Type: Cargo ship. MMSI: 218774000.

Date/timePositionNaut miles runAvg speedWind from/ knotsBaromVisibWave heightAir tempDewpointWater temp
2016-May-31 00:26N 34°22' E 022°19'1124.6
2016-May-31 00:00N 34°24' E 022°06'2614.6 999 / 31012.010.8 21.519.420.0
2016-May-30 22:13N 34°33' E 021°36'1216.5
2016-May-30 21:30N 34°37' E 021°23'1816.5
2016-May-30 20:24N 34°43' E 021°02'1516.7
2016-May-30 19:30N 34°47' E 020°45'1716.9
2016-May-30 18:30N 34°52' E 020°25'1121.1
2016-May-30 18:00N 34°54' E 020°12'712.7 999 / 41012.2 5.4 22.020.619.4
2016-May-30 17:28N 34°57' E 020°05'1516.6
2016-May-30 16:33N 35°01' E 019°47'1716.7
2016-May-30 15:33N 35°04' E 019°27'11 9.4
2016-May-30 14:23N 35°12' E 019°17'0 0.4
2016-May-30 13:32N 35°12' E 019°17'0 0.4
2016-May-30 12:32N 35°12' E 019°16'3 6.4
2016-May-30 12:00N 35°12' E 019°12'3 4.4 999 / 21012.810.8 28.120.119.7
2016-May-30 11:17N 35°12' E 019°16'0 0.4
2016-May-30 10:29N 35°12' E 019°16'0 0.4
2016-May-30 09:29N 35°11' E 019°16'0 0.3
2016-May-30 08:20N 35°11' E 019°16'6 2.5
2016-May-30 06:00N 35°06' E 019°12'611.1 999 / 41012.6 5.4 23.919.019.8
2016-May-30 05:29N 35°11' E 019°16'7114.5
2016-May-30 00:33N 35°32' E 017°52'1323.8
2016-May-30 00:00N 35°30' E 017°36'716.2 190 / 101011.910.8 20.419.419.8
2016-May-29 23:33N 35°37' E 017°33'1616.3
2016-May-29 22:33N 35°42' E 017°14'1616.5
2016-May-29 21:33N 35°47' E 016°55'1716.7
2016-May-29 20:33N 35°52' E 016°35'1716.9
2016-May-29 19:33N 35°57' E 016°15'1716.8
2016-May-29 18:34N 36°02' E 015°56'1120.1
2016-May-29 18:00N 36°00' E 015°42'920.6 300 / 71012.3 5.4 0.520.917.519.5
2016-May-29 17:33N 36°08' E 015°36'1717.0
2016-May-29 16:34N 36°13' E 015°16'1717.4
2016-May-29 15:33N 36°18' E 014°55'1717.5
2016-May-29 14:34N 36°23' E 014°35'1717.3
2016-May-29 13:34N 36°29' E 014°14'1717.1
2016-May-29 12:34N 36°34' E 013°54'1017.5
2016-May-29 12:00N 36°36' E 013°42'716.7 300 / 121013.9 5.4 0.523.116.618.1
2016-May-29 11:34N 36°39' E 013°34'1717.0
2016-May-29 10:33N 36°43' E 013°13'1717.1
2016-May-29 09:34N 36°50' E 012°54'1717.4
2016-May-29 08:33N 36°54' E 012°32'4718.2
2016-May-29 06:00N 37°06' E 011°36'5916.5 300 / 91014.6 5.4 0.521.815.418.1
2016-May-29 02:26N 37°32' E 010°30'1516.9
2016-May-29 01:34N 37°34' E 010°11'1717.0
2016-May-29 00:34N 37°32' E 009°50'1423.9
2016-May-29 00:00N 37°24' E 009°36'614.1 300 / 111012.810.8 22.613.918.0
2016-May-28 23:33N 37°27' E 009°29'3616.6
2016-May-28 21:24N 37°20' E 008°45'1516.2
2016-May-28 20:28N 37°19' E 008°27'2115.9
2016-May-28 19:08N 37°18' E 007°60'1216.0
2016-May-28 18:24N 37°17' E 007°45'921.4
2016-May-28 18:00N 37°12' E 007°36'1215.6 130 / 191012.8 5.4 1.020.017.618.8
2016-May-28 17:15N 37°16' E 007°22'1216.3
2016-May-28 16:31N 37°15' E 007°07'7817.3
2016-May-28 12:00N 37°06' E 005°30'6316.8 230 / 91017.3 2.2 0.521.418.219.1
2016-May-28 08:15N 37°08' E 004°11'2917.1
2016-May-28 06:33N 37°04' E 003°35'3517.6
2016-May-28 04:33N 36°59' E 002°52'1716.9
2016-May-28 03:33N 36°56' E 002°31'1716.9
2016-May-28 02:33N 36°54' E 002°10'1717.0
2016-May-28 01:33N 36°51' E 001°49'1717.5
2016-May-28 00:33N 36°49' E 001°27'1424.9
2016-May-28 00:00N 36°42' E 001°12'614.5 240 / 151016.210.8 0.519.813.019.4
2016-May-27 23:33N 36°46' E 001°06'1717.4
2016-May-27 22:33N 36°44' E 000°45'1716.8
2016-May-27 21:33N 36°41' E 000°24'1716.8
2016-May-27 20:33N 36°39' E 000°03'1716.9
2016-May-27 19:33N 36°36' W 000°18'1616.6
2016-May-27 18:33N 36°32' W 000°37'1220.4
2016-May-27 18:00N 36°24' W 000°48'611.8 250 / 111015.210.8 0.522.915.718.8
2016-May-27 17:30N 36°26' W 000°55'2 1.9
2016-May-27 16:31N 36°27' W 000°57'2 1.8
2016-May-27 15:33N 36°28' W 000°59'4 1.8
2016-May-27 13:21N 36°29' W 001°04'2 1.9
2016-May-27 12:33N 36°29' W 001°06'5 9.1
2016-May-27 12:00N 36°24' W 001°06'10 1.6 230 / 121015.510.8 0.521.017.218.9
2016-May-27 06:00N 36°24' W 001°18'9315.4 260 / 71014.010.8 0.519.714.718.6
2016-May-27 00:00N 36°12' W 003°12'9517.5 260 / 131013.410.8 0.518.115.517.8
2016-May-26 18:33N 36°01' W 005°09'1017.5
2016-May-26 18:00N 35°54' W 005°18'10317.1 260 / 211013.010.8 1.521.313.516.3
2016-May-26 12:00N 36°06' W 007°24'9716.1 999 / 41015.010.8 0.520.511.918.3
2016-May-26 06:00N 36°36' W 009°18'5916.4 999 / 41013.110.8 17.011.016.7
2016-May-26 02:23N 37°31' W 009°44'1315.4
2016-May-26 01:32N 37°44' W 009°49'1615.7
2016-May-26 00:33N 37°59' W 009°53'712.6
2016-May-26 00:00N 38°06' W 009°54'919.5 240 / 111013.010.8 1.016.212.216.4
2016-May-25 23:33N 38°14' W 009°58'1715.7
2016-May-25 22:26N 38°31' W 010°03'1415.4
2016-May-25 21:32N 38°45' W 010°06'1515.7
2016-May-25 20:33N 39°00' W 010°06'13215.4
2016-May-25 12:00N 41°12' W 010°06'9616.0 220 / 161011.610.8 1.016.611.514.7
2016-May-25 06:00N 42°48' W 010°06'37615.7 220 / 181008.210.8 2.015.310.314.4
2016-May-24 06:00N 48°24' W 006°06'2915.8 070 / 141017.210.8 1.513.1 7.311.7
2016-May-24 04:11N 48°50' W 005°48'914.5
2016-May-24 03:33N 48°56' W 005°38'1615.6
2016-May-24 02:30N 49°04' W 005°16'5117.2
2016-May-23 23:32N 49°31' W 004°09'3316.5
2016-May-23 21:33N 49°47' W 003°25'1514.9
2016-May-23 20:34N 49°54' W 003°05'1414.1
2016-May-23 19:34N 49°60' W 002°45'1514.3
2016-May-23 18:30N 50°04' W 002°22'1415.3
2016-May-23 17:34N 50°08' W 002°01'1716.9
2016-May-23 16:33N 50°12' W 001°35'1818.2
2016-May-23 15:33N 50°17' W 001°08'1616.4
2016-May-23 14:33N 50°32' W 000°59'1111.4
2016-May-23 13:33N 50°43' W 001°02'1111.4
2016-May-23 12:33N 50°49' W 001°18'7 7.5
2016-May-23 11:33N 50°54' W 001°26'0 0.2
2016-May-23 10:33N 50°54' W 001°27'0 0.0
2016-May-23 09:33N 50°54' W 001°27'0 0.0
2016-May-23 08:33N 50°54' W 001°27'0 0.0
2016-May-23 07:33N 50°54' W 001°27'0 0.0
2016-May-23 06:27N 50°54' W 001°27'0 0.0
2016-May-23 05:33N 50°54' W 001°27'0 0.0
2016-May-23 04:33N 50°54' W 001°27'0 0.0
2016-May-23 03:27N 50°54' W 001°27'0 0.0
2016-May-23 02:33N 50°54' W 001°27'0 0.0
2016-May-23 01:33N 50°54' W 001°27'0 0.0
2016-May-23 00:30N 50°54' W 001°27'0 0.0
2016-May-22 23:33N 50°54' W 001°27'0 0.0
2016-May-22 22:33N 50°54' W 001°27'0 0.0
2016-May-22 21:33N 50°54' W 001°27'0 0.0
2016-May-22 20:33N 50°54' W 001°27'0 0.0
2016-May-22 19:33N 50°54' W 001°27'0 0.0
2016-May-22 17:30N 50°54' W 001°27'0 0.0
2016-May-22 16:30N 50°54' W 001°27'0 0.0
2016-May-22 15:33N 50°54' W 001°27'0 0.0
2016-May-22 14:30N 50°54' W 001°27'0 0.0
2016-May-22 13:33N 50°54' W 001°27'0 0.0
2016-May-22 12:33N 50°54' W 001°27'0 0.0
2016-May-22 11:33N 50°54' W 001°27'0 0.0
2016-May-22 10:30N 50°54' W 001°27'0 0.0
2016-May-22 09:30N 50°54' W 001°27'0 0.0
2016-May-22 08:30N 50°54' W 001°27'0 0.0
2016-May-22 07:30N 50°54' W 001°27'0 0.0
2016-May-22 06:33N 50°54' W 001°27'0 0.0
2016-May-22 05:30N 50°54' W 001°27'0 0.0
2016-May-22 04:30N 50°54' W 001°27'0 0.0
2016-May-22 03:24N 50°54' W 001°27'0 0.0
2016-May-22 02:33N 50°54' W 001°27'0 0.0
2016-May-22 01:27N 50°54' W 001°27'0 0.0
2016-May-22 00:33N 50°54' W 001°27'0 0.0
2016-May-21 23:30N 50°54' W 001°27'0 0.0
2016-May-21 22:33N 50°54' W 001°27'0 0.0
2016-May-21 21:30N 50°54' W 001°27'0 0.0
2016-May-21 20:33N 50°54' W 001°27'0 0.0
2016-May-21 19:21N 50°54' W 001°27'0 0.0
2016-May-21 18:33N 50°54' W 001°27'0 0.0
2016-May-21 17:33N 50°54' W 001°27'0 0.0
2016-May-21 16:33N 50°54' W 001°27'0 0.0
2016-May-21 15:33N 50°54' W 001°27'0 0.0
2016-May-21 14:30N 50°54' W 001°27'0 0.0
2016-May-21 13:33N 50°54' W 001°27'0 0.0
2016-May-21 12:33N 50°54' W 001°27'0 0.0
2016-May-21 11:32N 50°54' W 001°27'0 0.0
2016-May-21 10:33N 50°54' W 001°27'1 0.8
2016-May-21 09:34N 50°54' W 001°26'8 8.1
2016-May-21 08:34N 50°47' W 001°19'1413.9
2016-May-21 07:34N 50°43' W 000°58'1010.4
2016-May-21 06:34N 50°34' W 000°50'1313.1
2016-May-21 05:33N 50°33' W 000°29'1515.0
2016-May-21 04:33N 50°32' W 000°06'1615.7
2016-May-21 03:33N 50°35' E 000°19'1615.8
2016-May-21 02:34N 50°40' E 000°42'1615.5
2016-May-21 01:33N 50°49' E 001°03'1514.6
2016-May-21 00:34N 50°57' E 001°21'  
Track history (hours):
 
Tides and Currents Weather Stations Pressure Air Temp Water Temp Dewpoint Dewpoint Depression Visibility Wind Speed Wind Dir Waves Ship Positions

Hamburg Express

Last reported at 2016-May-31 00:26 UTC. Time now 2016-May-31 04:03 UTC.
Position N 34°22' E 022°19'.

Length 366 m; draft 15 m.

Type: Cargo ship. MMSI: 218774000.

Date/timePositionNaut miles runAvg speedWind from/ knotsBaromVisibWave heightAir tempDewpointWater temp
2016-May-31 00:26N 34°22' E 022°19'1124.6
2016-May-31 00:00N 34°24' E 022°06'2614.6 999 / 31012.010.8 21.519.420.0
2016-May-30 22:13N 34°33' E 021°36'1216.5
2016-May-30 21:30N 34°37' E 021°23'1816.5
2016-May-30 20:24N 34°43' E 021°02'1516.7
2016-May-30 19:30N 34°47' E 020°45'1716.9
2016-May-30 18:30N 34°52' E 020°25'1121.1
2016-May-30 18:00N 34°54' E 020°12'712.7 999 / 41012.2 5.4 22.020.619.4
2016-May-30 17:28N 34°57' E 020°05'1516.6
2016-May-30 16:33N 35°01' E 019°47'1716.7
2016-May-30 15:33N 35°04' E 019°27'11 9.4
2016-May-30 14:23N 35°12' E 019°17'0 0.4
2016-May-30 13:32N 35°12' E 019°17'0 0.4
2016-May-30 12:32N 35°12' E 019°16'3 6.4
2016-May-30 12:00N 35°12' E 019°12'3 4.4 999 / 21012.810.8 28.120.119.7
2016-May-30 11:17N 35°12' E 019°16'0 0.4
2016-May-30 10:29N 35°12' E 019°16'0 0.4
2016-May-30 09:29N 35°11' E 019°16'0 0.3
2016-May-30 08:20N 35°11' E 019°16'6 2.5
2016-May-30 06:00N 35°06' E 019°12'611.1 999 / 41012.6 5.4 23.919.019.8
2016-May-30 05:29N 35°11' E 019°16'7114.5
2016-May-30 00:33N 35°32' E 017°52'1323.8
2016-May-30 00:00N 35°30' E 017°36'716.2 190 / 101011.910.8 20.419.419.8
2016-May-29 23:33N 35°37' E 017°33'1616.3
2016-May-29 22:33N 35°42' E 017°14'1616.5
2016-May-29 21:33N 35°47' E 016°55'1716.7
2016-May-29 20:33N 35°52' E 016°35'1716.9
2016-May-29 19:33N 35°57' E 016°15'1716.8
2016-May-29 18:34N 36°02' E 015°56'1120.1
2016-May-29 18:00N 36°00' E 015°42'920.6 300 / 71012.3 5.4 0.520.917.519.5
2016-May-29 17:33N 36°08' E 015°36'1717.0
2016-May-29 16:34N 36°13' E 015°16'1717.4
2016-May-29 15:33N 36°18' E 014°55'1717.5
2016-May-29 14:34N 36°23' E 014°35'1717.3
2016-May-29 13:34N 36°29' E 014°14'1717.1
2016-May-29 12:34N 36°34' E 013°54'1017.5
2016-May-29 12:00N 36°36' E 013°42'716.7 300 / 121013.9 5.4 0.523.116.618.1
2016-May-29 11:34N 36°39' E 013°34'1717.0
2016-May-29 10:33N 36°43' E 013°13'1717.1
2016-May-29 09:34N 36°50' E 012°54'1717.4
2016-May-29 08:33N 36°54' E 012°32'4718.2
2016-May-29 06:00N 37°06' E 011°36'5916.5 300 / 91014.6 5.4 0.521.815.418.1
2016-May-29 02:26N 37°32' E 010°30'1516.9
2016-May-29 01:34N 37°34' E 010°11'1717.0
2016-May-29 00:34N 37°32' E 009°50'1423.9
2016-May-29 00:00N 37°24' E 009°36'614.1 300 / 111012.810.8 22.613.918.0
2016-May-28 23:33N 37°27' E 009°29'3616.6
2016-May-28 21:24N 37°20' E 008°45'1516.2
2016-May-28 20:28N 37°19' E 008°27'2115.9
2016-May-28 19:08N 37°18' E 007°60'1216.0
2016-May-28 18:24N 37°17' E 007°45'921.4
2016-May-28 18:00N 37°12' E 007°36'1215.6 130 / 191012.8 5.4 1.020.017.618.8
2016-May-28 17:15N 37°16' E 007°22'1216.3
2016-May-28 16:31N 37°15' E 007°07'7817.3
2016-May-28 12:00N 37°06' E 005°30'6316.8 230 / 91017.3 2.2 0.521.418.219.1
2016-May-28 08:15N 37°08' E 004°11'2917.1
2016-May-28 06:33N 37°04' E 003°35'3517.6
2016-May-28 04:33N 36°59' E 002°52'1716.9
2016-May-28 03:33N 36°56' E 002°31'1716.9
2016-May-28 02:33N 36°54' E 002°10'1717.0
2016-May-28 01:33N 36°51' E 001°49'1717.5
2016-May-28 00:33N 36°49' E 001°27'1424.9
2016-May-28 00:00N 36°42' E 001°12'614.5 240 / 151016.210.8 0.519.813.019.4
2016-May-27 23:33N 36°46' E 001°06'1717.4
2016-May-27 22:33N 36°44' E 000°45'1716.8
2016-May-27 21:33N 36°41' E 000°24'1716.8
2016-May-27 20:33N 36°39' E 000°03'1716.9
2016-May-27 19:33N 36°36' W 000°18'1616.6
2016-May-27 18:33N 36°32' W 000°37'1220.4
2016-May-27 18:00N 36°24' W 000°48'611.8 250 / 111015.210.8 0.522.915.718.8
2016-May-27 17:30N 36°26' W 000°55'2 1.9
2016-May-27 16:31N 36°27' W 000°57'2 1.8
2016-May-27 15:33N 36°28' W 000°59'4 1.8
2016-May-27 13:21N 36°29' W 001°04'2 1.9
2016-May-27 12:33N 36°29' W 001°06'5 9.1
2016-May-27 12:00N 36°24' W 001°06'10 1.6 230 / 121015.510.8 0.521.017.218.9
2016-May-27 06:00N 36°24' W 001°18'9315.4 260 / 71014.010.8 0.519.714.718.6
2016-May-27 00:00N 36°12' W 003°12'9517.5 260 / 131013.410.8 0.518.115.517.8
2016-May-26 18:33N 36°01' W 005°09'1017.5
2016-May-26 18:00N 35°54' W 005°18'10317.1 260 / 211013.010.8 1.521.313.516.3
2016-May-26 12:00N 36°06' W 007°24'9716.1 999 / 41015.010.8 0.520.511.918.3
2016-May-26 06:00N 36°36' W 009°18'5916.4 999 / 41013.110.8 17.011.016.7
2016-May-26 02:23N 37°31' W 009°44'1315.4
2016-May-26 01:32N 37°44' W 009°49'1615.7
2016-May-26 00:33N 37°59' W 009°53'712.6
2016-May-26 00:00N 38°06' W 009°54'919.5 240 / 111013.010.8 1.016.212.216.4
2016-May-25 23:33N 38°14' W 009°58'1715.7
2016-May-25 22:26N 38°31' W 010°03'1415.4
2016-May-25 21:32N 38°45' W 010°06'1515.7
2016-May-25 20:33N 39°00' W 010°06'13215.4
2016-May-25 12:00N 41°12' W 010°06'9616.0 220 / 161011.610.8 1.016.611.514.7
2016-May-25 06:00N 42°48' W 010°06'37615.7 220 / 181008.210.8 2.015.310.314.4
2016-May-24 06:00N 48°24' W 006°06'2915.8 070 / 141017.210.8 1.513.1 7.311.7
2016-May-24 04:11N 48°50' W 005°48'914.5
2016-May-24 03:33N 48°56' W 005°38'1615.6
2016-May-24 02:30N 49°04' W 005°16'5117.2
2016-May-23 23:32N 49°31' W 004°09'3316.5
2016-May-23 21:33N 49°47' W 003°25'1514.9
2016-May-23 20:34N 49°54' W 003°05'1414.1
2016-May-23 19:34N 49°60' W 002°45'1514.3
2016-May-23 18:30N 50°04' W 002°22'1415.3
2016-May-23 17:34N 50°08' W 002°01'1716.9
2016-May-23 16:33N 50°12' W 001°35'1818.2
2016-May-23 15:33N 50°17' W 001°08'1616.4
2016-May-23 14:33N 50°32' W 000°59'1111.4
2016-May-23 13:33N 50°43' W 001°02'1111.4
2016-May-23 12:33N 50°49' W 001°18'7 7.5
2016-May-23 11:33N 50°54' W 001°26'0 0.2
2016-May-23 10:33N 50°54' W 001°27'0 0.0
2016-May-23 09:33N 50°54' W 001°27'0 0.0
2016-May-23 08:33N 50°54' W 001°27'0 0.0
2016-May-23 07:33N 50°54' W 001°27'0 0.0
2016-May-23 06:27N 50°54' W 001°27'0 0.0
2016-May-23 05:33N 50°54' W 001°27'0 0.0
2016-May-23 04:33N 50°54' W 001°27'0 0.0
2016-May-23 03:27N 50°54' W 001°27'0 0.0
2016-May-23 02:33N 50°54' W 001°27'0 0.0
2016-May-23 01:33N 50°54' W 001°27'0 0.0
2016-May-23 00:30N 50°54' W 001°27'0 0.0
2016-May-22 23:33N 50°54' W 001°27'0 0.0
2016-May-22 22:33N 50°54' W 001°27'0 0.0
2016-May-22 21:33N 50°54' W 001°27'0 0.0
2016-May-22 20:33N 50°54' W 001°27'0 0.0
2016-May-22 19:33N 50°54' W 001°27'0 0.0
2016-May-22 17:30N 50°54' W 001°27'0 0.0
2016-May-22 16:30N 50°54' W 001°27'0 0.0
2016-May-22 15:33N 50°54' W 001°27'0 0.0
2016-May-22 14:30N 50°54' W 001°27'0 0.0
2016-May-22 13:33N 50°54' W 001°27'0 0.0
2016-May-22 12:33N 50°54' W 001°27'0 0.0
2016-May-22 11:33N 50°54' W 001°27'0 0.0
2016-May-22 10:30N 50°54' W 001°27'0 0.0
2016-May-22 09:30N 50°54' W 001°27'0 0.0
2016-May-22 08:30N 50°54' W 001°27'0 0.0
2016-May-22 07:30N 50°54' W 001°27'0 0.0
2016-May-22 06:33N 50°54' W 001°27'0 0.0
2016-May-22 05:30N 50°54' W 001°27'0 0.0
2016-May-22 04:30N 50°54' W 001°27'0 0.0
2016-May-22 03:24N 50°54' W 001°27'0 0.0
2016-May-22 02:33N 50°54' W 001°27'0 0.0
2016-May-22 01:27N 50°54' W 001°27'0 0.0
2016-May-22 00:33N 50°54' W 001°27'0 0.0
2016-May-21 23:30N 50°54' W 001°27'0 0.0
2016-May-21 22:33N 50°54' W 001°27'0 0.0
2016-May-21 21:30N 50°54' W 001°27'0 0.0
2016-May-21 20:33N 50°54' W 001°27'0 0.0
2016-May-21 19:21N 50°54' W 001°27'0 0.0
2016-May-21 18:33N 50°54' W 001°27'0 0.0
2016-May-21 17:33N 50°54' W 001°27'0 0.0
2016-May-21 16:33N 50°54' W 001°27'0 0.0
2016-May-21 15:33N 50°54' W 001°27'0 0.0
2016-May-21 14:30N 50°54' W 001°27'0 0.0
2016-May-21 13:33N 50°54' W 001°27'0 0.0
2016-May-21 12:33N 50°54' W 001°27'0 0.0
2016-May-21 11:32N 50°54' W 001°27'0 0.0
2016-May-21 10:33N 50°54' W 001°27'1 0.8
2016-May-21 09:34N 50°54' W 001°26'8 8.1
2016-May-21 08:34N 50°47' W 001°19'1413.9
2016-May-21 07:34N 50°43' W 000°58'1010.4
2016-May-21 06:34N 50°34' W 000°50'1313.1
2016-May-21 05:33N 50°33' W 000°29'1515.0
2016-May-21 04:33N 50°32' W 000°06'1615.7
2016-May-21 03:33N 50°35' E 000°19'1615.8
2016-May-21 02:34N 50°40' E 000°42'1615.5
2016-May-21 01:33N 50°49' E 001°03'1514.6
2016-May-21 00:34N 50°57' E 001°21'  

Dump ship's entire track history